Latest Coastal Weather Observations for Walpole North

IDW60701

Issued at 5:45 pm WST Thursday 31 July 2014 (issued every 10 minutes, with the page automatically refreshed every 10 minutes)

About coastal observations | Map of coastal stations | Coastal observations for WA | Marine services | Other Formats
Station Details ID: 009998 Name: NORTH WALPOLE Lat: -34.95 Lon: 116.72 Height: 73.0 m
Data from the previous 72 hours. | See also: Recent months at Walpole North
Date/Time
WST
Temp

°C
Wind Pressure Rain
since 9am
mm
Weather Cloud Vis
km
Sea
Height
m
Swell
Dir
 
Speed
knots
Gust
knots
hPa Trend Height
m
Period
s
Dir
31/05:30pm 10.3 SSW 6 10 1027.7 - 0.0 - - - - - - -
31/05:00pm 10.7 CALM 0 0 1027.4 - 0.0 - - - - - - -
31/04:30pm 11.3 SW 5 8 1027.3 - 0.0 - - - - - - -
31/04:00pm 11.5 SW 5 7 1027.4 - 0.0 - - - - - - -
31/03:30pm 11.5 SW 3 5 1027.5 - 0.0 - - - - - - -
31/03:00pm 11.8 SW 6 9 1027.4 - 0.0 - - - - - - -
31/02:30pm 12.2 SSW 5 7 1027.2 - 0.0 - - - - - - -
31/02:00pm 11.5 S 6 10 1027.0 - 0.0 - - - - - - -
31/01:30pm 11.8 SW 6 11 1026.9 - 0.0 - - - - - - -
31/01:00pm 12.1 SSW 6 10 1027.0 - 0.0 - - - - - - -
31/12:30pm 11.9 SSW 7 13 1027.2 - 0.0 - - - - - - -
31/12:00pm 12.0 SW 6 10 1027.4 - 0.0 - - - - - - -
31/11:30am 11.3 S 4 9 1027.5 - 0.0 - - - - - - -
31/11:00am 11.4 SSW 6 9 1027.5 - 0.0 - - - - - - -
31/10:30am 11.2 CALM 0 0 1027.4 - 0.0 - - - - - - -
31/10:00am 11.1 SW 3 5 1027.1 - 0.0 - - - - - - -
31/09:30am 10.6 SW 3 5 1026.9 - 0.0 - - - - - - -
31/09:00am 10.1 SSW 6 10 1026.5 - 1.2 - - - - - - -
31/08:30am 10.0 S 5 10 1025.9 - 1.2 - - - - - - -
31/08:00am 9.6 S 5 10 1025.7 - 1.2 - - - - - - -
31/07:30am 8.9 S 9 14 1025.4 - 1.2 - - - - - - -
31/07:00am 9.4 S 11 19 1025.1 - 1.2 - - - - - - -
31/06:30am 9.6 SSW 8 13 1024.7 - 1.2 - - - - - - -
31/06:00am 9.8 SSW 8 16 1024.2 - 1.2 - - - - - - -
31/05:30am 9.9 SSW 11 19 1023.8 - 1.2 - - - - - - -
31/05:00am 10.4 SSW 9 15 1023.4 - 1.2 - - - - - - -
31/04:30am 10.4 SW 9 16 1023.1 - 1.2 - - - - - - -
31/04:00am 10.4 SW 9 19 1023.1 - 1.2 - - - - - - -
31/03:30am 10.4 SW 10 17 1023.0 - 1.2 - - - - - - -
31/03:00am 10.6 SSW 14 25 1023.0 - 1.2 - - - - - - -
31/02:30am 11.1 SW 10 22 1022.4 - 1.2 - - - - - - -
31/02:00am 10.9 WSW 12 19 1022.1 - 1.2 - - - - - - -
31/01:30am 11.0 WSW 12 19 1021.9 - 1.2 - - - - - - -
31/01:00am 11.4 WSW 10 16 1021.8 - 1.2 - - - - - - -
31/12:30am 11.5 WSW 13 22 1021.6 - 1.2 - - - - - - -
31/12:00am 11.3 WSW 13 21 1021.5 - 1.2 - - - - - - -
 
Date/Time
WST
Temp

°C
Wind Pressure Rain
since 9am
mm
Weather Cloud Vis
km
Sea
Height
m
Swell
Dir
 
Speed
knots
Gust
knots
hPa Trend Height
m
Period
s
Dir
30/11:30pm 11.5 SW 11 13 1021.4 - 1.2 - - - - - - -
30/11:00pm 11.6 WSW 14 24 1021.1 - 1.2 - - - - - - -
30/10:30pm 11.6 WSW 11 19 1020.9 - 1.2 - - - - - - -
30/10:00pm 11.7 WSW 12 23 1020.8 - 1.2 - - - - - - -
30/09:30pm 11.9 WSW 15 29 1020.3 - 1.2 - - - - - - -
30/09:00pm 12.3 WSW 17 29 1019.7 - 1.2 - - - - - - -
30/08:30pm 12.5 WSW 18 34 1019.0 - 1.2 - - - - - - -
30/08:02pm 12.8 WSW 15 28 1018.7 - 1.2 - - - - - - -
30/08:00pm 12.7 WSW 15 24 1018.7 - 1.2 - - - - - - -
30/07:45pm 12.7 WSW 15 27 1018.3 - 1.2 - - - - - - -
30/07:30pm 12.8 WSW 14 21 1018.3 - 1.2 - - - - - - -
30/07:00pm 13.2 W 11 19 1017.9 - 1.2 - - - - - - -
30/06:30pm 13.3 W 13 21 1017.6 - 1.2 - - - - - - -
30/06:00pm 13.3 W 13 23 1017.5 - 1.2 - - - - - - -
30/05:30pm 13.2 W 13 21 1017.3 - 1.2 - - - - - - -
30/05:00pm 14.3 W 15 25 1017.3 - 1.2 - - - - - - -
30/04:54pm 14.2 W 15 25 1017.1 - 1.2 - - - - - - -
30/04:30pm 14.5 W 13 24 1016.8 - 1.2 - - - - - - -
30/04:06pm 14.5 W 15 25 1016.7 - 1.2 - - - - - - -
30/04:00pm 14.4 W 13 25 1016.7 - 1.2 - - - - - - -
30/03:30pm 14.9 W 13 24 1016.5 - 1.2 - - - - - - -
30/03:00pm 14.9 W 15 28 1016.4 - 1.2 - - - - - - -
30/02:56pm 14.6 W 15 28 1016.2 - 1.2 - - - - - - -
30/02:30pm 14.0 W 13 21 1016.0 - 1.2 - - - - - - -
30/02:00pm 13.9 W 12 21 1015.9 - 1.2 - - - - - - -
30/01:30pm 13.6 W 13 19 1016.0 - 1.2 - - - - - - -
30/01:00pm 14.0 WNW 12 14 1015.9 - 1.0 - - - - - - -
30/12:30pm 14.7 WNW 16 29 1015.8 - 0.2 - - - - - - -
30/12:00pm 15.3 WNW 16 27 1016.0 - 0.0 - - - - - - -
30/11:30am 14.7 WNW 16 27 1016.5 - 0.0 - - - - - - -
30/11:27am 14.5 WNW 15 27 1016.5 - 0.0 - - - - - - -
30/11:00am 14.9 W 12 20 1017.0 - 0.0 - - - - - - -
30/10:30am 15.1 WNW 14 24 1017.1 - 0.0 - - - - - - -
30/10:00am 14.2 WNW 14 21 1017.3 - 0.0 - - - - - - -
30/09:30am 13.6 WNW 14 20 1016.9 - 0.0 - - - - - - -
30/09:00am 13.3 WNW 14 21 1016.7 - 1.0 Recent precip. - - - - - -
30/08:30am 13.1 WNW 15 21 1016.6 - 0.8 - - - - - - -
30/08:00am 13.0 WNW 15 21 1016.6 - 0.4 - - - - - - -
30/07:30am 13.1 WNW 16 23 1016.5 - 0.2 - - - - - - -
30/07:00am 12.9 WNW 14 19 1016.3 - 0.0 - - - - - - -
30/06:30am 13.5 WNW 10 15 1016.4 - 0.0 - - - - - - -
30/06:00am 13.7 WNW 11 18 1016.2 - 0.0 - - - - - - -
30/05:30am 13.8 WNW 14 22 1016.2 - 0.0 - - - - - - -
30/05:00am 13.8 NW 13 18 1016.1 - 0.0 - - - - - - -
30/04:30am 13.7 NW 12 15 1016.3 - 0.0 - - - - - - -
30/04:00am 13.7 NW 11 17 1016.5 - 0.0 - - - - - - -
30/03:30am 13.6 NW 13 18 1016.5 - 0.0 - - - - - - -
30/03:00am 13.4 NW 13 18 1016.7 - 0.0 - - - - - - -
30/02:30am 13.3 NW 11 15 1016.9 - 0.0 - - - - - - -
30/02:00am 13.5 WNW 10 16 1017.3 - 0.0 - - - - - - -
30/01:30am 14.3 NW 15 21 1017.2 - 0.0 - - - - - - -
30/01:00am 14.3 NW 16 24 1017.3 - 0.0 - - - - - - -
30/12:30am 13.8 NW 14 21 1017.6 - 0.0 - - - - - - -
30/12:00am 14.0 NW 13 18 1017.7 - 0.0 - - - - - - -
 
Date/Time
WST
Temp

°C
Wind Pressure Rain
since 9am
mm
Weather Cloud Vis
km
Sea
Height
m
Swell
Dir
 
Speed
knots
Gust
knots
hPa Trend Height
m
Period
s
Dir
29/11:30pm 14.2 NW 14 19 1017.6 - 0.0 - - - - - - -
29/11:00pm 14.2 NW 14 18 1017.9 - 0.0 - - - - - - -
29/10:30pm 14.4 NW 13 18 1018.1 - 0.0 - - - - - - -
29/10:00pm 14.2 NW 12 19 1018.3 - 0.0 - - - - - - -
29/09:30pm 14.4 NW 11 15 1018.2 - 0.0 - - - - - - -
29/09:00pm 14.5 NW 13 20 1018.4 - 0.0 - - - - - - -
29/08:30pm 14.5 NW 13 22 1018.7 - 0.0 - - - - - - -
29/08:00pm 14.6 NW 13 19 1018.9 - 0.0 - - - - - - -
29/07:30pm 14.4 NW 13 18 1018.8 - 0.0 - - - - - - -
29/07:00pm 14.7 NW 13 20 1018.8 - 0.0 - - - - - - -
29/06:30pm 14.9 NW 15 22 1018.5 - 0.0 - - - - - - -
29/06:00pm 14.7 NW 12 18 1018.4 - 0.0 - - - - - - -
29/05:30pm 14.1 WNW 11 16 1018.2 - 0.0 - - - - - - -
29/05:00pm 14.9 WNW 11 17 1018.1 - 0.0 - - - - - - -
29/04:30pm 15.1 NW 12 16 1018.1 - 0.0 - - - - - - -
29/04:00pm 15.4 WNW 14 19 1018.6 - 0.0 - - - - - - -
29/03:30pm 15.7 WNW 16 23 1018.4 - 0.0 - - - - - - -
29/03:00pm 16.0 WNW 10 16 1018.5 - 0.0 - - - - - - -
29/02:30pm 16.0 WNW 11 17 1018.4 - 0.0 - - - - - - -
29/02:00pm 15.9 WNW 12 21 1018.4 - 0.0 - - - - - - -
29/01:30pm 15.2 WNW 15 22 1018.5 - 0.0 - - - - - - -
29/01:00pm 16.3 NW 15 21 1018.8 - 0.0 - - - - - - -
29/12:30pm 16.4 WNW 15 23 1018.9 - 0.0 - - - - - - -
29/12:00pm 17.1 NW 15 24 1019.3 - 0.0 - - - - - - -
29/11:30am 15.9 WNW 13 19 1019.6 - 0.0 - - - - - - -
29/11:00am 15.6 NW 13 19 1020.0 - 0.0 - - - - - - -
29/10:30am 15.2 NW 12 17 1020.1 - 0.0 - - - - - - -
29/10:00am 15.0 WNW 13 17 1020.1 - 0.0 - - - - - - -
29/09:30am 14.7 NW 12 17 1019.7 - 0.0 - - - - - - -
29/09:00am 14.4 NW 10 14 1019.7 - 0.4 - - - - - - -
29/08:30am 14.3 NW 11 16 1019.4 - 0.4 - - - - - - -
29/08:00am 14.1 NW 13 17 1019.3 - 0.4 - - - - - - -
29/07:30am 13.6 NW 11 18 1018.8 - 0.4 - - - - - - -
29/07:00am 13.6 NW 12 16 1018.9 - 0.4 - - - - - - -
29/06:30am 13.4 NW 11 15 1018.5 - 0.4 - - - - - - -
29/06:00am 13.6 NW 10 15 1018.3 - 0.4 - - - - - - -
29/05:30am 13.7 NW 9 12 1018.2 - 0.4 - - - - - - -
29/05:00am 13.6 WNW 10 12 1018.5 - 0.4 - - - - - - -
29/04:30am 13.7 NW 10 16 1018.0 - 0.4 - - - - - - -
29/04:00am 13.9 NW 11 18 1018.0 - 0.2 - - - - - - -
29/03:30am 13.9 WNW 12 15 1018.1 - 0.2 - - - - - - -
29/03:00am 14.5 WNW 11 18 1018.1 - 0.2 - - - - - - -
29/02:30am 13.7 WNW 14 18 1017.7 - 0.2 - - - - - - -
29/02:00am 13.8 WNW 13 19 1017.9 - 0.2 - - - - - - -
29/01:30am 13.6 WNW 12 17 1018.1 - 0.2 - - - - - - -
29/01:00am 13.5 WNW 13 19 1018.4 - 0.2 - - - - - - -
29/12:30am 13.4 WNW 13 20 1018.1 - 0.2 - - - - - - -
29/12:00am 13.1 NW 13 19 1018.0 - 0.2 - - - - - - -
 
Date/Time
WST
Temp

°C
Wind Pressure Rain
since 9am
mm
Weather Cloud Vis
km
Sea
Height
m
Swell
Dir
 
Speed
knots
Gust
knots
hPa Trend Height
m
Period
s
Dir
28/11:30pm 13.3 WNW 13 19 1018.1 - 0.2 - - - - - - -
28/11:00pm 13.1 WNW 11 17 1018.6 - 0.2 - - - - - - -
28/10:30pm 13.4 NW 12 16 1018.5 - 0.2 - - - - - - -
28/10:00pm 13.7 NW 13 17 1018.4 - 0.2 - - - - - - -
28/09:30pm 13.7 WNW 12 17 1018.3 - 0.2 - - - - - - -
28/09:00pm 14.1 NW 13 20 1018.6 - 0.2 - - - - - - -
28/08:30pm 14.0 WNW 11 15 1018.6 - 0.2 - - - - - - -
28/08:00pm 14.2 NW 15 21 1018.6 - 0.2 - - - - - - -
28/07:30pm 14.4 NW 14 19 1018.4 - 0.2 - - - - - - -
28/07:00pm 14.4 WNW 14 19 1018.5 - 0.2 - - - - - - -
28/06:30pm 14.4 WNW 13 19 1018.1 - 0.2 - - - - - - -
28/06:00pm 14.4 WNW 14 23 1018.0 - 0.2 - - - - - - -

Other Formats:

Comma delimited format used in spreadsheet applications
http://www.bom.gov.au/fwo/IDW60701/IDW60701.95647.axf

JavaScript Object Notation format (JSON) in row-major order
http://www.bom.gov.au/fwo/IDW60701/IDW60701.95647.json